FIN4RL EFHK-LKPR
Flight info
| Callsign | FIN4RL |
|---|---|
| Flight time | 1h 52m |
| Altitude | 38000 |
| Route | VALOX Y117 ROSAX DCT PIMEX P739 DEREX DCT ANFEV DCT PENOR DCT LATAG P861 RASAN DCT ASTEL DCT GOLOP |
| Aircraft | A320/M-SDE3FGHIRWY/LB1 |
Departure
| Time | 2026-04-24 19:24 |
|---|---|
| Airport | Helsinki Vantaa Airport (EFHK) |
Arrival
| Time | 2026-04-24 21:16 |
|---|---|
| Airport | Václav Havel Airport Prague (LKPR) |
| Time | Latitude | Longitude | Altitude | Speed | Heading |
|---|---|---|---|---|---|
| 2026-04-24 18:54 | 60.31864 | 24.96999 | 162 ft | 0 kts | 244° |
| 2026-04-24 19:11 | 60.31867 | 24.97014 | 161 ft | 3 kts | 246° |
| 2026-04-24 19:12 | 60.31875 | 24.97051 | 161 ft | 3 kts | 256° |
| 2026-04-24 19:12 | 60.31878 | 24.97091 | 161 ft | 3 kts | 270° |
| 2026-04-24 19:12 | 60.31876 | 24.97130 | 161 ft | 3 kts | 299° |
| 2026-04-24 19:12 | 60.31868 | 24.97152 | 161 ft | 1 kts | 333° |
| 2026-04-24 19:13 | 60.31867 | 24.97153 | 161 ft | 0 kts | 333° |
| 2026-04-24 19:15 | 60.31893 | 24.97127 | 161 ft | 9 kts | 334° |
| 2026-04-24 19:16 | 60.32034 | 24.96979 | 161 ft | 15 kts | 331° |
| 2026-04-24 19:16 | 60.32130 | 24.96869 | 161 ft | 17 kts | 330° |
| 2026-04-24 19:16 | 60.32233 | 24.96749 | 161 ft | 15 kts | 329° |
| 2026-04-24 19:17 | 60.32232 | 24.96626 | 161 ft | 13 kts | 226° |
| 2026-04-24 19:17 | 60.32156 | 24.96461 | 161 ft | 18 kts | 228° |
| 2026-04-24 19:17 | 60.32070 | 24.96271 | 162 ft | 19 kts | 228° |
| 2026-04-24 19:17 | 60.31977 | 24.96068 | 161 ft | 20 kts | 227° |
| 2026-04-24 19:18 | 60.31879 | 24.95851 | 161 ft | 22 kts | 227° |
| 2026-04-24 19:18 | 60.31778 | 24.95628 | 161 ft | 21 kts | 227° |
| 2026-04-24 19:18 | 60.31678 | 24.95409 | 161 ft | 21 kts | 227° |
| 2026-04-24 19:18 | 60.31584 | 24.95202 | 161 ft | 19 kts | 227° |
| 2026-04-24 19:19 | 60.31495 | 24.95006 | 161 ft | 19 kts | 227° |
| 2026-04-24 19:19 | 60.31404 | 24.94806 | 161 ft | 20 kts | 226° |
| 2026-04-24 19:19 | 60.31309 | 24.94597 | 161 ft | 21 kts | 228° |
| 2026-04-24 19:19 | 60.31207 | 24.94370 | 161 ft | 23 kts | 228° |
| 2026-04-24 19:20 | 60.31107 | 24.94150 | 161 ft | 20 kts | 227° |
| 2026-04-24 19:20 | 60.31035 | 24.93969 | 161 ft | 13 kts | 246° |
| 2026-04-24 19:20 | 60.31038 | 24.93862 | 161 ft | 3 kts | 294° |
| 2026-04-24 19:20 | 60.31039 | 24.93857 | 161 ft | 0 kts | 295° |
| 2026-04-24 19:22 | 60.31056 | 24.93806 | 161 ft | 8 kts | 308° |
| 2026-04-24 19:22 | 60.31100 | 24.93726 | 161 ft | 10 kts | 320° |
| 2026-04-24 19:22 | 60.31147 | 24.93674 | 161 ft | 5 kts | 8° |
| 2026-04-24 19:23 | 60.31158 | 24.93697 | 161 ft | 0 kts | 49° |
| 2026-04-24 19:23 | 60.31201 | 24.93792 | 162 ft | 34 kts | 47° |
| 2026-04-24 19:24 | 60.31531 | 24.94520 | 161 ft | 103 kts | 47° |
| 2026-04-24 19:24 | 60.32145 | 24.95868 | 165 ft | 156 kts | 47° |
| 2026-04-24 19:24 | 60.32935 | 24.97572 | 584 ft | 166 kts | 44° |
| 2026-04-24 19:24 | 60.33721 | 24.99254 | 1369 ft | 164 kts | 44° |
| 2026-04-24 19:25 | 60.34487 | 25.00996 | 2067 ft | 167 kts | 44° |
| 2026-04-24 19:25 | 60.35260 | 25.02756 | 2743 ft | 167 kts | 43° |
| 2026-04-24 19:25 | 60.36054 | 25.04515 | 3270 ft | 176 kts | 43° |
| 2026-04-24 19:25 | 60.36939 | 25.06453 | 3554 ft | 199 kts | 43° |
| 2026-04-24 19:26 | 60.37939 | 25.08638 | 3849 ft | 224 kts | 43° |
| 2026-04-24 19:26 | 60.38968 | 25.11235 | 4266 ft | 252 kts | 60° |
| 2026-04-24 19:26 | 60.39226 | 25.14843 | 4967 ft | 273 kts | 97° |
| 2026-04-24 19:26 | 60.38584 | 25.18537 | 5861 ft | 281 kts | 110° |
| 2026-04-24 19:27 | 60.37557 | 25.21959 | 6717 ft | 291 kts | 130° |
| 2026-04-24 19:27 | 60.35899 | 25.24388 | 7506 ft | 301 kts | 158° |
| 2026-04-24 19:27 | 60.33843 | 25.25147 | 8299 ft | 304 kts | 187° |
| 2026-04-24 19:27 | 60.31835 | 25.24012 | 9109 ft | 299 kts | 215° |
| 2026-04-24 19:28 | 60.30235 | 25.21414 | 9916 ft | 295 kts | 230° |
| 2026-04-24 19:28 | 60.28730 | 25.18472 | 10264 ft | 317 kts | 230° |
| 2026-04-24 19:28 | 60.27103 | 25.15284 | 10677 ft | 332 kts | 230° |
| 2026-04-24 19:28 | 60.25423 | 25.12027 | 11373 ft | 338 kts | 230° |
| 2026-04-24 19:29 | 60.21982 | 25.05429 | 12895 ft | 345 kts | 230° |
| 2026-04-24 19:29 | 60.20226 | 25.02073 | 13645 ft | 349 kts | 230° |
| 2026-04-24 19:29 | 60.18460 | 24.98701 | 14312 ft | 352 kts | 230° |
| 2026-04-24 19:30 | 60.16678 | 24.95304 | 14993 ft | 354 kts | 230° |
| 2026-04-24 19:30 | 60.14885 | 24.91890 | 15669 ft | 357 kts | 230° |
| 2026-04-24 19:30 | 60.13076 | 24.88448 | 16340 ft | 360 kts | 230° |
| 2026-04-24 19:30 | 60.11254 | 24.84985 | 17006 ft | 362 kts | 230° |
| 2026-04-24 19:31 | 60.09419 | 24.81499 | 17665 ft | 365 kts | 230° |
| 2026-04-24 19:31 | 60.07565 | 24.77986 | 18280 ft | 368 kts | 230° |
| 2026-04-24 19:31 | 60.05699 | 24.74459 | 18838 ft | 370 kts | 230° |
| 2026-04-24 19:31 | 60.03813 | 24.70906 | 19409 ft | 373 kts | 230° |
| 2026-04-24 19:32 | 60.01914 | 24.67332 | 19963 ft | 376 kts | 230° |
| 2026-04-24 19:32 | 60.00002 | 24.63743 | 20535 ft | 379 kts | 230° |
| 2026-04-24 19:32 | 59.98075 | 24.60132 | 21087 ft | 381 kts | 230° |
| 2026-04-24 19:32 | 59.96130 | 24.56491 | 21644 ft | 384 kts | 230° |
| 2026-04-24 19:33 | 59.94176 | 24.52833 | 22196 ft | 387 kts | 229° |
| 2026-04-24 19:33 | 59.92208 | 24.49154 | 22759 ft | 390 kts | 229° |
| 2026-04-24 19:33 | 59.90223 | 24.45446 | 23295 ft | 392 kts | 229° |
| 2026-04-24 19:33 | 59.88223 | 24.41717 | 23741 ft | 395 kts | 229° |
| 2026-04-24 19:34 | 59.86211 | 24.37972 | 24171 ft | 397 kts | 229° |
| 2026-04-24 19:34 | 59.84182 | 24.34210 | 24599 ft | 400 kts | 229° |
| 2026-04-24 19:34 | 59.82145 | 24.30438 | 25016 ft | 402 kts | 228° |
| 2026-04-24 19:34 | 59.80093 | 24.26639 | 25426 ft | 404 kts | 228° |
| 2026-04-24 19:35 | 59.78028 | 24.22826 | 25829 ft | 406 kts | 228° |
| 2026-04-24 19:35 | 59.75952 | 24.19008 | 26222 ft | 408 kts | 227° |
| 2026-04-24 19:35 | 59.73863 | 24.15178 | 26603 ft | 410 kts | 226° |
| 2026-04-24 19:35 | 59.71603 | 24.11663 | 26982 ft | 417 kts | 220° |
| 2026-04-24 19:36 | 59.69236 | 24.08314 | 27355 ft | 419 kts | 220° |
| 2026-04-24 19:36 | 59.66860 | 24.04956 | 27732 ft | 420 kts | 220° |
| 2026-04-24 19:36 | 59.64507 | 24.01636 | 28101 ft | 422 kts | 219° |
| 2026-04-24 19:36 | 59.62079 | 23.98212 | 28467 ft | 424 kts | 219° |
| 2026-04-24 19:37 | 59.59699 | 23.94864 | 28812 ft | 426 kts | 219° |
| 2026-04-24 19:37 | 59.57279 | 23.91461 | 29164 ft | 428 kts | 219° |
| 2026-04-24 19:37 | 59.54852 | 23.88039 | 29497 ft | 430 kts | 219° |
| 2026-04-24 19:37 | 59.52416 | 23.84612 | 29824 ft | 431 kts | 219° |
| 2026-04-24 19:38 | 59.49965 | 23.81177 | 30099 ft | 433 kts | 218° |
| 2026-04-24 19:38 | 59.47581 | 23.77551 | 30355 ft | 432 kts | 225° |
| 2026-04-24 19:38 | 59.45484 | 23.73333 | 30608 ft | 432 kts | 230° |
| 2026-04-24 19:38 | 59.43453 | 23.68968 | 30855 ft | 433 kts | 230° |
| 2026-04-24 19:39 | 59.41411 | 23.64590 | 31092 ft | 435 kts | 230° |
| 2026-04-24 19:39 | 59.39361 | 23.60215 | 31378 ft | 435 kts | 230° |
| 2026-04-24 19:39 | 59.37312 | 23.55855 | 31717 ft | 434 kts | 230° |
| 2026-04-24 19:39 | 59.35263 | 23.51501 | 32054 ft | 434 kts | 230° |
| 2026-04-24 19:40 | 59.33219 | 23.47165 | 32384 ft | 433 kts | 230° |
| 2026-04-24 19:40 | 59.31245 | 23.42985 | 32697 ft | 433 kts | 229° |
| 2026-04-24 19:40 | 59.29203 | 23.38666 | 33014 ft | 432 kts | 229° |
| 2026-04-24 19:40 | 59.27160 | 23.34350 | 33342 ft | 432 kts | 229° |
| 2026-04-24 19:41 | 59.25118 | 23.30045 | 33673 ft | 431 kts | 229° |
| 2026-04-24 19:41 | 59.23080 | 23.25757 | 33962 ft | 431 kts | 229° |
| 2026-04-24 19:41 | 59.21037 | 23.21470 | 34219 ft | 431 kts | 229° |
| 2026-04-24 19:41 | 59.18993 | 23.17196 | 34455 ft | 431 kts | 229° |
| 2026-04-24 19:42 | 59.16944 | 23.12916 | 34687 ft | 431 kts | 229° |
| 2026-04-24 19:42 | 59.14894 | 23.08646 | 34921 ft | 431 kts | 229° |
| 2026-04-24 19:42 | 59.12838 | 23.04370 | 35133 ft | 432 kts | 229° |
| 2026-04-24 19:42 | 59.10785 | 23.00104 | 35347 ft | 432 kts | 229° |
| 2026-04-24 19:43 | 59.08728 | 22.95834 | 35551 ft | 432 kts | 229° |
| 2026-04-24 19:43 | 59.06668 | 22.91561 | 35754 ft | 433 kts | 229° |
| 2026-04-24 19:43 | 59.04608 | 22.87290 | 35940 ft | 433 kts | 229° |
| 2026-04-24 19:43 | 59.02544 | 22.83026 | 36128 ft | 434 kts | 229° |
| 2026-04-24 19:44 | 59.00474 | 22.78763 | 36316 ft | 434 kts | 229° |
| 2026-04-24 19:44 | 58.98400 | 22.74505 | 36496 ft | 434 kts | 229° |
| 2026-04-24 19:44 | 58.96322 | 22.70253 | 36679 ft | 435 kts | 229° |
| 2026-04-24 19:44 | 58.94239 | 22.65998 | 36856 ft | 435 kts | 229° |
| 2026-04-24 19:45 | 58.92158 | 22.61751 | 37032 ft | 435 kts | 229° |
| 2026-04-24 19:45 | 58.90074 | 22.57504 | 37199 ft | 435 kts | 229° |
| 2026-04-24 19:45 | 58.87987 | 22.53248 | 37364 ft | 436 kts | 230° |
| 2026-04-24 19:45 | 58.85903 | 22.48999 | 37530 ft | 436 kts | 230° |
| 2026-04-24 19:46 | 58.83814 | 22.44752 | 37711 ft | 435 kts | 229° |
| 2026-04-24 19:46 | 58.81720 | 22.40509 | 37818 ft | 436 kts | 229° |
| 2026-04-24 19:46 | 58.79626 | 22.36280 | 37833 ft | 436 kts | 229° |
| 2026-04-24 19:47 | 58.75429 | 22.27833 | 37844 ft | 436 kts | 229° |
| 2026-04-24 19:47 | 58.71223 | 22.19406 | 37850 ft | 436 kts | 229° |
| 2026-04-24 19:48 | 58.67724 | 22.12410 | 37849 ft | 436 kts | 229° |
| 2026-04-24 19:48 | 58.61413 | 21.99810 | 37853 ft | 437 kts | 229° |
| 2026-04-24 19:49 | 58.52955 | 21.83069 | 37861 ft | 437 kts | 229° |
| 2026-04-24 19:50 | 58.44501 | 21.66442 | 37866 ft | 437 kts | 229° |
| 2026-04-24 19:51 | 58.38121 | 21.53995 | 37872 ft | 437 kts | 229° |
| 2026-04-24 19:52 | 58.31735 | 21.41578 | 37881 ft | 437 kts | 229° |
| 2026-04-24 19:52 | 58.27470 | 21.33334 | 37875 ft | 437 kts | 229° |
| 2026-04-24 19:53 | 58.23191 | 21.25107 | 37882 ft | 438 kts | 229° |
| 2026-04-24 19:54 | 58.16755 | 21.12828 | 37883 ft | 438 kts | 228° |
| 2026-04-24 19:54 | 58.12445 | 21.04688 | 37887 ft | 438 kts | 228° |
| 2026-04-24 19:55 | 58.08855 | 20.97936 | 37888 ft | 438 kts | 228° |
| 2026-04-24 19:55 | 58.03800 | 20.88458 | 37889 ft | 438 kts | 228° |
| 2026-04-24 19:56 | 57.99473 | 20.80377 | 37889 ft | 438 kts | 228° |
| 2026-04-24 19:56 | 57.95146 | 20.72307 | 37893 ft | 438 kts | 228° |
| 2026-04-24 19:57 | 57.90816 | 20.64256 | 37894 ft | 438 kts | 228° |
| 2026-04-24 19:57 | 57.86513 | 20.56303 | 37897 ft | 438 kts | 228° |
| 2026-04-24 19:58 | 57.82163 | 20.48299 | 37905 ft | 438 kts | 228° |
| 2026-04-24 19:58 | 57.77812 | 20.40313 | 37913 ft | 438 kts | 228° |
| 2026-04-24 19:59 | 57.73459 | 20.32338 | 37907 ft | 438 kts | 228° |
| 2026-04-24 19:59 | 57.69122 | 20.24444 | 37911 ft | 438 kts | 228° |
| 2026-04-24 20:00 | 57.64713 | 20.16602 | 37911 ft | 438 kts | 226° |
| 2026-04-24 20:00 | 57.60136 | 20.08948 | 37909 ft | 439 kts | 225° |
| 2026-04-24 20:01 | 57.55586 | 20.01470 | 37912 ft | 439 kts | 225° |
| 2026-04-24 20:01 | 57.51029 | 19.93918 | 37914 ft | 439 kts | 226° |
| 2026-04-24 20:02 | 57.47214 | 19.87568 | 37914 ft | 439 kts | 226° |
| 2026-04-24 20:02 | 57.41920 | 19.78792 | 37912 ft | 439 kts | 226° |
| 2026-04-24 20:03 | 57.37348 | 19.71255 | 37912 ft | 439 kts | 225° |
| 2026-04-24 20:03 | 57.32781 | 19.63745 | 37906 ft | 439 kts | 225° |
| 2026-04-24 20:04 | 57.28201 | 19.56249 | 37909 ft | 439 kts | 225° |
| 2026-04-24 20:04 | 57.23620 | 19.48772 | 37920 ft | 440 kts | 225° |
| 2026-04-24 20:05 | 57.19031 | 19.41309 | 37918 ft | 440 kts | 225° |
| 2026-04-24 20:05 | 57.14439 | 19.33864 | 37921 ft | 440 kts | 225° |
| 2026-04-24 20:06 | 57.09841 | 19.26430 | 37923 ft | 440 kts | 225° |
| 2026-04-24 20:06 | 57.05232 | 19.19019 | 37924 ft | 440 kts | 225° |
| 2026-04-24 20:07 | 57.01403 | 19.12876 | 37917 ft | 440 kts | 225° |
| 2026-04-24 20:07 | 56.96008 | 19.04257 | 37926 ft | 440 kts | 225° |
| 2026-04-24 20:08 | 56.91385 | 18.96895 | 37931 ft | 440 kts | 225° |
| 2026-04-24 20:08 | 56.86790 | 18.89605 | 37924 ft | 440 kts | 225° |
| 2026-04-24 20:09 | 56.82159 | 18.82283 | 37921 ft | 440 kts | 225° |
| 2026-04-24 20:09 | 56.77526 | 18.74981 | 37933 ft | 440 kts | 225° |
| 2026-04-24 20:10 | 56.72891 | 18.67686 | 37933 ft | 440 kts | 225° |
| 2026-04-24 20:10 | 56.68253 | 18.60420 | 37936 ft | 440 kts | 225° |
| 2026-04-24 20:11 | 56.63612 | 18.53171 | 37937 ft | 440 kts | 225° |
| 2026-04-24 20:11 | 56.58966 | 18.45936 | 37938 ft | 440 kts | 225° |
| 2026-04-24 20:12 | 56.54346 | 18.38775 | 37938 ft | 439 kts | 225° |
| 2026-04-24 20:12 | 56.49698 | 18.31588 | 37936 ft | 439 kts | 225° |
| 2026-04-24 20:13 | 56.45044 | 18.24416 | 37938 ft | 439 kts | 225° |
| 2026-04-24 20:13 | 56.40383 | 18.17272 | 37938 ft | 439 kts | 225° |
| 2026-04-24 20:14 | 56.35723 | 18.10143 | 37938 ft | 439 kts | 225° |
| 2026-04-24 20:14 | 56.31057 | 18.03029 | 37937 ft | 439 kts | 225° |
| 2026-04-24 20:15 | 56.26390 | 17.95935 | 37942 ft | 439 kts | 225° |
| 2026-04-24 20:15 | 56.21751 | 17.88905 | 37940 ft | 439 kts | 225° |
| 2026-04-24 20:16 | 56.17078 | 17.81842 | 37939 ft | 439 kts | 225° |
| 2026-04-24 20:16 | 56.12400 | 17.74812 | 37941 ft | 439 kts | 225° |
| 2026-04-24 20:17 | 56.07726 | 17.67801 | 37946 ft | 438 kts | 225° |
| 2026-04-24 20:17 | 56.00701 | 17.57306 | 37948 ft | 438 kts | 225° |
| 2026-04-24 20:18 | 55.96058 | 17.50395 | 37952 ft | 437 kts | 225° |
| 2026-04-24 20:18 | 55.91383 | 17.43453 | 37947 ft | 437 kts | 225° |
| 2026-04-24 20:19 | 55.86703 | 17.36540 | 37944 ft | 437 kts | 225° |
| 2026-04-24 20:19 | 55.82024 | 17.29663 | 37942 ft | 436 kts | 225° |
| 2026-04-24 20:20 | 55.76948 | 17.23646 | 37945 ft | 447 kts | 209° |
| 2026-04-24 20:20 | 55.71003 | 17.20103 | 37943 ft | 452 kts | 203° |
| 2026-04-24 20:21 | 55.65002 | 17.16785 | 37943 ft | 452 kts | 203° |
| 2026-04-24 20:21 | 55.58918 | 17.13871 | 37939 ft | 455 kts | 198° |
| 2026-04-24 20:22 | 55.52756 | 17.11553 | 37935 ft | 456 kts | 197° |
| 2026-04-24 20:22 | 55.46546 | 17.09289 | 37939 ft | 456 kts | 198° |
| 2026-04-24 20:23 | 55.40345 | 17.06898 | 37939 ft | 455 kts | 198° |
| 2026-04-24 20:23 | 55.34177 | 17.04441 | 37939 ft | 455 kts | 199° |
| 2026-04-24 20:24 | 55.27997 | 17.02007 | 37943 ft | 455 kts | 198° |
| 2026-04-24 20:24 | 55.21819 | 16.99601 | 37946 ft | 455 kts | 198° |
| 2026-04-24 20:25 | 55.15640 | 16.97202 | 37943 ft | 455 kts | 199° |
| 2026-04-24 20:25 | 55.09457 | 16.94798 | 37944 ft | 455 kts | 199° |
| 2026-04-24 20:26 | 55.03313 | 16.92425 | 37949 ft | 455 kts | 199° |
| 2026-04-24 20:26 | 54.97139 | 16.90055 | 37956 ft | 454 kts | 199° |
| 2026-04-24 20:27 | 54.90964 | 16.87695 | 37956 ft | 454 kts | 199° |
| 2026-04-24 20:27 | 54.84861 | 16.85364 | 37963 ft | 454 kts | 199° |
| 2026-04-24 20:28 | 54.78695 | 16.83016 | 37968 ft | 453 kts | 199° |
| 2026-04-24 20:28 | 54.72536 | 16.80668 | 37964 ft | 453 kts | 199° |
| 2026-04-24 20:29 | 54.66391 | 16.78335 | 37973 ft | 452 kts | 199° |
| 2026-04-24 20:29 | 54.60253 | 16.76023 | 37981 ft | 451 kts | 199° |
| 2026-04-24 20:30 | 54.54120 | 16.73711 | 37985 ft | 450 kts | 199° |
| 2026-04-24 20:30 | 54.48006 | 16.71410 | 37989 ft | 449 kts | 199° |
| 2026-04-24 20:31 | 54.41937 | 16.69152 | 37992 ft | 449 kts | 199° |
| 2026-04-24 20:31 | 54.35836 | 16.66882 | 37983 ft | 448 kts | 199° |
| 2026-04-24 20:32 | 54.29735 | 16.64611 | 37986 ft | 448 kts | 199° |
| 2026-04-24 20:32 | 54.23640 | 16.62347 | 37982 ft | 448 kts | 199° |
| 2026-04-24 20:33 | 54.17549 | 16.60091 | 37991 ft | 448 kts | 198° |
| 2026-04-24 20:33 | 54.11455 | 16.57846 | 37992 ft | 448 kts | 198° |
| 2026-04-24 20:34 | 54.05370 | 16.55618 | 37991 ft | 447 kts | 198° |
| 2026-04-24 20:34 | 53.99283 | 16.53387 | 37997 ft | 447 kts | 198° |
| 2026-04-24 20:35 | 53.93201 | 16.51158 | 37995 ft | 447 kts | 198° |
| 2026-04-24 20:35 | 53.87117 | 16.48943 | 37995 ft | 447 kts | 198° |
| 2026-04-24 20:36 | 53.81029 | 16.46733 | 38000 ft | 447 kts | 198° |
| 2026-04-24 20:36 | 53.75973 | 16.44899 | 37999 ft | 447 kts | 198° |
| 2026-04-24 20:37 | 53.69886 | 16.42705 | 38000 ft | 447 kts | 198° |
| 2026-04-24 20:37 | 53.63797 | 16.40502 | 38001 ft | 447 kts | 198° |
| 2026-04-24 20:38 | 53.57708 | 16.38318 | 38000 ft | 447 kts | 198° |
| 2026-04-24 20:38 | 53.51608 | 16.36138 | 38003 ft | 447 kts | 198° |
| 2026-04-24 20:39 | 53.45518 | 16.33967 | 38002 ft | 447 kts | 198° |
| 2026-04-24 20:39 | 53.39468 | 16.31825 | 38011 ft | 447 kts | 198° |
| 2026-04-24 20:40 | 53.33377 | 16.29672 | 38009 ft | 447 kts | 198° |
| 2026-04-24 20:40 | 53.27291 | 16.27511 | 38016 ft | 447 kts | 198° |
| 2026-04-24 20:41 | 53.21199 | 16.25367 | 38015 ft | 447 kts | 198° |
| 2026-04-24 20:41 | 53.15112 | 16.23225 | 38020 ft | 447 kts | 198° |
| 2026-04-24 20:42 | 53.09021 | 16.21077 | 38027 ft | 447 kts | 198° |
| 2026-04-24 20:42 | 53.02938 | 16.18943 | 38034 ft | 447 kts | 198° |
| 2026-04-24 20:43 | 52.96854 | 16.16832 | 38026 ft | 446 kts | 198° |
| 2026-04-24 20:43 | 52.90775 | 16.14720 | 38034 ft | 446 kts | 198° |
| 2026-04-24 20:44 | 52.84699 | 16.12618 | 38033 ft | 446 kts | 198° |
| 2026-04-24 20:44 | 52.78633 | 16.10521 | 38036 ft | 445 kts | 198° |
| 2026-04-24 20:45 | 52.72569 | 16.08435 | 38041 ft | 445 kts | 198° |
| 2026-04-24 20:45 | 52.66514 | 16.06346 | 38043 ft | 444 kts | 198° |
| 2026-04-24 20:46 | 52.60473 | 16.04272 | 38044 ft | 444 kts | 198° |
| 2026-04-24 20:46 | 52.54432 | 16.02208 | 38046 ft | 443 kts | 198° |
| 2026-04-24 20:47 | 52.48393 | 16.00156 | 38049 ft | 443 kts | 198° |
| 2026-04-24 20:47 | 52.42358 | 15.98105 | 38052 ft | 443 kts | 198° |
| 2026-04-24 20:48 | 52.36330 | 15.96055 | 38059 ft | 442 kts | 198° |
| 2026-04-24 20:48 | 52.30300 | 15.94021 | 38062 ft | 442 kts | 198° |
| 2026-04-24 20:49 | 52.24274 | 15.92006 | 38067 ft | 442 kts | 198° |
| 2026-04-24 20:49 | 52.18250 | 15.89982 | 38068 ft | 442 kts | 198° |
| 2026-04-24 20:50 | 52.12229 | 15.87949 | 38066 ft | 442 kts | 198° |
| 2026-04-24 20:50 | 52.06208 | 15.85939 | 38061 ft | 442 kts | 198° |
| 2026-04-24 20:51 | 52.00220 | 15.83946 | 38065 ft | 442 kts | 198° |
| 2026-04-24 20:51 | 51.94198 | 15.81943 | 38065 ft | 441 kts | 198° |
| 2026-04-24 20:52 | 51.88185 | 15.79944 | 38056 ft | 442 kts | 198° |
| 2026-04-24 20:52 | 51.82154 | 15.77951 | 38039 ft | 443 kts | 198° |
| 2026-04-24 20:53 | 51.76058 | 15.75932 | 38039 ft | 445 kts | 198° |
| 2026-04-24 20:53 | 51.70276 | 15.72840 | 38045 ft | 432 kts | 214° |
| 2026-04-24 20:54 | 51.65100 | 15.68030 | 38048 ft | 430 kts | 217° |
| 2026-04-24 20:54 | 51.59920 | 15.63197 | 38049 ft | 430 kts | 217° |
| 2026-04-24 20:55 | 51.54726 | 15.58374 | 38058 ft | 431 kts | 217° |
| 2026-04-24 20:55 | 51.49531 | 15.53560 | 38066 ft | 432 kts | 217° |
| 2026-04-24 20:56 | 51.44329 | 15.48747 | 38071 ft | 432 kts | 217° |
| 2026-04-24 20:56 | 51.39127 | 15.43939 | 38073 ft | 432 kts | 217° |
| 2026-04-24 20:57 | 51.33916 | 15.39138 | 38078 ft | 432 kts | 217° |
| 2026-04-24 20:57 | 51.28703 | 15.34351 | 38082 ft | 432 kts | 217° |
| 2026-04-24 20:58 | 51.23515 | 15.29606 | 38084 ft | 432 kts | 217° |
| 2026-04-24 20:58 | 51.18259 | 15.24809 | 38083 ft | 432 kts | 217° |
| 2026-04-24 20:59 | 51.13071 | 15.20086 | 38081 ft | 433 kts | 217° |
| 2026-04-24 20:59 | 51.07805 | 15.15297 | 38077 ft | 433 kts | 217° |
| 2026-04-24 21:00 | 51.02578 | 15.10470 | 37252 ft | 435 kts | 221° |
| 2026-04-24 21:00 | 51.00211 | 15.07553 | 36565 ft | 427 kts | 229° |
| 2026-04-24 21:00 | 50.98092 | 15.04273 | 35877 ft | 425 kts | 231° |
| 2026-04-24 21:01 | 50.95987 | 15.00966 | 35252 ft | 426 kts | 231° |
| 2026-04-24 21:01 | 50.93877 | 14.97659 | 34635 ft | 427 kts | 231° |
| 2026-04-24 21:01 | 50.91758 | 14.94340 | 34017 ft | 428 kts | 231° |
| 2026-04-24 21:01 | 50.89634 | 14.91018 | 33343 ft | 430 kts | 231° |
| 2026-04-24 21:02 | 50.87503 | 14.87690 | 32726 ft | 430 kts | 231° |
| 2026-04-24 21:02 | 50.85321 | 14.84385 | 31577 ft | 439 kts | 228° |
| 2026-04-24 21:02 | 50.83025 | 14.81186 | 30645 ft | 443 kts | 226° |
| 2026-04-24 21:02 | 50.80664 | 14.78089 | 29467 ft | 450 kts | 224° |
| 2026-04-24 21:03 | 50.78208 | 14.75054 | 28729 ft | 446 kts | 220° |
| 2026-04-24 21:03 | 50.75403 | 14.72784 | 27451 ft | 464 kts | 203° |
| 2026-04-24 21:03 | 50.72185 | 14.71832 | 26175 ft | 480 kts | 186° |
| 2026-04-24 21:03 | 50.68832 | 14.72009 | 25291 ft | 481 kts | 180° |
| 2026-04-24 21:04 | 50.65509 | 14.72283 | 24606 ft | 474 kts | 180° |
| 2026-04-24 21:04 | 50.62233 | 14.72547 | 23909 ft | 469 kts | 180° |
| 2026-04-24 21:04 | 50.58985 | 14.72795 | 23131 ft | 465 kts | 180° |
| 2026-04-24 21:04 | 50.55724 | 14.73032 | 22374 ft | 460 kts | 180° |
| 2026-04-24 21:05 | 50.52541 | 14.73258 | 21687 ft | 456 kts | 180° |
| 2026-04-24 21:05 | 50.49391 | 14.73482 | 21007 ft | 451 kts | 180° |
| 2026-04-24 21:05 | 50.46283 | 14.73705 | 20233 ft | 441 kts | 180° |
| 2026-04-24 21:05 | 50.43273 | 14.73926 | 19184 ft | 438 kts | 180° |
| 2026-04-24 21:06 | 50.40240 | 14.74146 | 18504 ft | 434 kts | 180° |
| 2026-04-24 21:06 | 50.37238 | 14.74362 | 17795 ft | 430 kts | 180° |
| 2026-04-24 21:06 | 50.34256 | 14.74576 | 17084 ft | 425 kts | 180° |
| 2026-04-24 21:06 | 50.31314 | 14.74784 | 16412 ft | 421 kts | 180° |
| 2026-04-24 21:07 | 50.28399 | 14.74990 | 15744 ft | 417 kts | 180° |
| 2026-04-24 21:07 | 50.25511 | 14.75197 | 15067 ft | 411 kts | 180° |
| 2026-04-24 21:07 | 50.22674 | 14.75403 | 14056 ft | 405 kts | 180° |
| 2026-04-24 21:07 | 50.19890 | 14.75607 | 13222 ft | 394 kts | 179° |
| 2026-04-24 21:08 | 50.17186 | 14.75809 | 12383 ft | 384 kts | 179° |
| 2026-04-24 21:08 | 50.14532 | 14.76003 | 11201 ft | 384 kts | 179° |
| 2026-04-24 21:08 | 50.11914 | 14.76181 | 10724 ft | 364 kts | 181° |
| 2026-04-24 21:08 | 50.09517 | 14.75769 | 10589 ft | 332 kts | 198° |
| 2026-04-24 21:09 | 50.07454 | 14.74493 | 10234 ft | 312 kts | 214° |
| 2026-04-24 21:09 | 50.05765 | 14.72494 | 9608 ft | 300 kts | 229° |
| 2026-04-24 21:09 | 50.04307 | 14.70193 | 8932 ft | 297 kts | 230° |
| 2026-04-24 21:09 | 50.02867 | 14.67923 | 8264 ft | 293 kts | 229° |
| 2026-04-24 21:10 | 50.01444 | 14.65688 | 7617 ft | 288 kts | 229° |
| 2026-04-24 21:10 | 50.00042 | 14.63488 | 6913 ft | 286 kts | 229° |
| 2026-04-24 21:10 | 49.98643 | 14.61290 | 6151 ft | 285 kts | 229° |
| 2026-04-24 21:10 | 49.97293 | 14.59059 | 5384 ft | 280 kts | 238° |
| 2026-04-24 21:11 | 49.96626 | 14.56391 | 5031 ft | 254 kts | 268° |
| 2026-04-24 21:11 | 49.96801 | 14.53840 | 4888 ft | 228 kts | 292° |
| 2026-04-24 21:11 | 49.97558 | 14.51788 | 4764 ft | 213 kts | 309° |
| 2026-04-24 21:11 | 49.98433 | 14.50001 | 4684 ft | 202 kts | 309° |
| 2026-04-24 21:12 | 49.99272 | 14.48285 | 4485 ft | 197 kts | 309° |
| 2026-04-24 21:12 | 49.99815 | 14.47170 | 4356 ft | 193 kts | 309° |
| 2026-04-24 21:12 | 50.00875 | 14.44996 | 3994 ft | 184 kts | 309° |
| 2026-04-24 21:12 | 50.01632 | 14.43441 | 3747 ft | 177 kts | 309° |
| 2026-04-24 21:13 | 50.02362 | 14.41941 | 3522 ft | 171 kts | 309° |
| 2026-04-24 21:13 | 50.03063 | 14.40499 | 3300 ft | 163 kts | 309° |
| 2026-04-24 21:13 | 50.03721 | 14.39145 | 3080 ft | 151 kts | 309° |
| 2026-04-24 21:13 | 50.04359 | 14.37834 | 2877 ft | 152 kts | 308° |
| 2026-04-24 21:14 | 50.04986 | 14.36542 | 2698 ft | 143 kts | 308° |
| 2026-04-24 21:14 | 50.05567 | 14.35346 | 2488 ft | 135 kts | 308° |
| 2026-04-24 21:14 | 50.06125 | 14.34196 | 2303 ft | 132 kts | 308° |
| 2026-04-24 21:14 | 50.06676 | 14.33062 | 2095 ft | 131 kts | 308° |
| 2026-04-24 21:15 | 50.07223 | 14.31935 | 1888 ft | 131 kts | 307° |
| 2026-04-24 21:15 | 50.07770 | 14.30788 | 1661 ft | 132 kts | 308° |
| 2026-04-24 21:15 | 50.08328 | 14.29645 | 1454 ft | 133 kts | 307° |
| 2026-04-24 21:15 | 50.08885 | 14.28489 | 1259 ft | 133 kts | 308° |
| 2026-04-24 21:16 | 50.09428 | 14.27382 | 1177 ft | 117 kts | 307° |
| 2026-04-24 21:16 | 50.09819 | 14.26571 | 1174 ft | 69 kts | 307° |
| 2026-04-24 21:16 | 50.09993 | 14.26212 | 1175 ft | 58 kts | 307° |
| 2026-04-24 21:16 | 50.10202 | 14.25789 | 1176 ft | 36 kts | 311° |
| 2026-04-24 21:17 | 50.10397 | 14.25656 | 1176 ft | 27 kts | 360° |
| 2026-04-24 21:17 | 50.10504 | 14.25718 | 1174 ft | 10 kts | 88° |
| 2026-04-24 21:17 | 50.10503 | 14.25873 | 1175 ft | 17 kts | 78° |
| 2026-04-24 21:17 | 50.10528 | 14.26064 | 1175 ft | 19 kts | 78° |
| 2026-04-24 21:18 | 50.10531 | 14.26251 | 1172 ft | 18 kts | 112° |
| 2026-04-24 21:18 | 50.10463 | 14.26407 | 1176 ft | 16 kts | 126° |
| 2026-04-24 21:18 | 50.10399 | 14.26533 | 1176 ft | 10 kts | 126° |
| 2026-04-24 21:18 | 50.10378 | 14.26594 | 1175 ft | 3 kts | 92° |
| 2026-04-24 21:19 | 50.10394 | 14.26615 | 1173 ft | 3 kts | 31° |
| 2026-04-24 21:19 | 50.10410 | 14.26631 | 1175 ft | 2 kts | 33° |
| 2026-04-24 21:19 | 50.10417 | 14.26638 | 1175 ft | 0 kts | 34° |
| 2026-04-24 21:19 | 50.10417 | 14.26639 | 1176 ft | 0 kts | 34° |